Time;durP1;ratioP1;P1;durP2;ratioP2;P2;SDS_P1;SDS_P2;PMS_P1;PMS_P2;Temp;Humidity;BMP_temperature;BMP_pressure;BME280_temperature;BME280_humidity;BME280_pressure;Samples;Min_cycle;Max_cycle;Signal;HPM_P1;HPM_P2
2023/10/16 00:02:16;;;;;;;26.55;18.02;;;;;;;18.44;100.00;100662.31;5131503;27;20467;-72
2023/10/16 00:04:45;;;;;;;31.35;16.40;;;;;;;18.40;100.00;100645.31;5112901;28;20027;-73
2023/10/16 00:07:15;;;;;;;26.48;16.48;;;;;;;18.48;100.00;100688.78;5125557;27;20031;-73
2023/10/16 00:09:41;;;;;;;24.05;16.58;;;;;;;18.61;100.00;100697.56;5134350;27;20027;-73
2023/10/16 00:12:07;;;;;;;21.98;15.15;;;;;;;18.17;100.00;100654.19;5135050;27;20027;-73
2023/10/16 00:14:35;;;;;;;27.02;13.75;;;;;;;18.11;100.00;100643.34;5134715;27;20031;-73
2023/10/16 00:17:08;;;;;;;23.50;14.48;;;;;;;18.38;100.00;100692.69;5135048;27;20039;-73
2023/10/16 00:19:34;;;;;;;27.88;14.13;;;;;;;18.19;100.00;100646.38;5116588;27;20031;-73
2023/10/16 00:22:10;;;;;;;24.08;13.45;;;;;;;18.29;100.00;100675.06;5134522;27;20034;-73
2023/10/16 00:24:37;;;;;;;27.48;13.18;;;;;;;18.38;100.00;100683.19;5135247;27;20031;-73
2023/10/16 00:27:02;;;;;;;22.52;12.57;;;;;;;17.97;100.00;100617.44;5115959;27;20039;-73
2023/10/16 00:29:35;;;;;;;16.10;12.30;;;;;;;17.62;100.00;100556.53;5116093;27;20022;-73
2023/10/16 00:32:07;;;;;;;21.05;12.27;;;;;;;17.90;100.00;100604.03;5116274;27;20117;-73
2023/10/16 00:34:32;;;;;;;28.13;12.75;;;;;;;17.88;100.00;100607.59;5116176;27;20659;-73
2023/10/16 00:36:57;;;;;;;18.45;12.13;;;;;;;18.27;100.00;100672.59;5133975;27;20125;-73
2023/10/16 00:39:28;;;;;;;20.05;12.63;;;;;;;18.23;100.00;100650.47;5150281;27;20031;-73
2023/10/16 00:41:54;;;;;;;29.75;13.00;;;;;;;17.98;100.00;100608.81;5116595;27;20661;-73
2023/10/16 00:44:22;;;;;;;28.60;12.05;;;;;;;17.79;100.00;100569.41;5133984;27;20042;-73
2023/10/16 00:46:50;;;;;;;22.00;11.25;;;;;;;17.84;100.00;100578.59;5134115;27;20027;-73
2023/10/16 00:49:18;;;;;;;21.83;12.25;;;;;;;18.05;100.00;100630.75;5115912;27;20031;-73
2023/10/16 00:51:45;;;;;;;23.50;12.05;;;;;;;17.82;100.00;100565.00;5134197;27;20428;-73
2023/10/16 00:54:18;;;;;;;24.42;11.57;;;;;;;18.09;100.00;100640.00;5115473;27;20497;-73
2023/10/16 00:56:45;;;;;;;18.75;11.48;;;;;;;17.76;100.00;100585.84;5134001;27;20057;-73
2023/10/16 00:59:16;;;;;;;14.70;11.07;;;;;;;17.71;100.00;100580.09;5134106;27;20059;-73
2023/10/16 01:01:45;;;;;;;16.73;10.40;;;;;;;17.96;100.00;100626.91;5133775;27;20038;-73
2023/10/16 01:04:11;;;;;;;19.33;9.90;;;;;;;17.66;100.00;100552.91;5115701;27;20027;-73
2023/10/16 01:06:37;;;;;;;23.10;10.13;;;;;;;18.05;100.00;100607.59;5115557;27;20033;-73
2023/10/16 01:09:09;;;;;;;23.40;10.45;;;;;;;17.68;100.00;100533.94;5133670;27;20035;-73
2023/10/16 01:11:37;;;;;;;17.25;9.68;;;;;;;17.96;100.00;100595.19;5115810;27;20066;-73
2023/10/16 01:14:04;;;;;;;23.85;9.35;;;;;;;17.25;100.00;100477.72;5133943;27;20034;-73
2023/10/16 01:16:30;;;;;;;17.90;9.07;;;;;;;17.19;100.00;100491.69;5116452;27;20032;-73
2023/10/16 01:19:01;;;;;;;27.15;8.10;;;;;;;17.77;100.00;100581.53;5133212;27;20042;-73
2023/10/16 01:21:27;;;;;;;20.05;8.02;;;;;;;16.98;100.00;100461.00;5113499;27;20031;-72
2023/10/16 01:23:55;;;;;;;23.15;8.32;;;;;;;17.15;100.00;100494.50;5133880;27;20546;-74
2023/10/16 01:26:21;;;;;;;20.27;7.95;;;;;;;17.54;100.00;100577.47;5133648;27;20023;-73
2023/10/16 01:28:46;;;;;;;17.05;7.55;;;;;;;16.91;100.00;100473.34;5133351;27;20487;-74
2023/10/16 01:31:13;;;;;;;21.65;7.78;;;;;;;17.54;100.00;100585.19;5115248;27;20126;-73
2023/10/16 01:33:42;;;;;;;24.38;7.18;;;;;;;17.49;100.00;100591.47;5133500;27;20023;-73
2023/10/16 01:36:07;;;;;;;20.35;7.60;;;;;;;17.03;100.00;100524.16;5114686;27;20045;-73
2023/10/16 01:38:34;;;;;;;24.83;6.65;;;;;;;17.35;100.00;100567.19;5114825;27;20106;-72
2023/10/16 01:41:05;;;;;;;26.13;6.82;;;;;;;17.27;100.00;100528.13;5133552;27;20458;-73
2023/10/16 01:43:37;;;;;;;22.15;6.35;;;;;;;16.67;100.00;100451.34;5114748;27;20031;-73
2023/10/16 01:46:08;;;;;;;27.33;5.75;;;;;;;17.19;100.00;100573.91;5109308;27;20032;-73
2023/10/16 01:48:39;;;;;;;14.30;5.07;;;;;;;17.18;100.00;100556.00;5133309;27;20031;-73
2023/10/16 01:51:09;;;;;;;14.90;5.20;;;;;;;16.82;100.00;100506.28;5114635;27;20065;-73
2023/10/16 01:53:39;;;;;;;13.88;5.07;;;;;;;17.23;100.00;100556.66;5133098;27;20122;-73
2023/10/16 01:56:12;;;;;;;19.23;5.30;;;;;;;17.32;100.00;100554.47;5133274;27;20473;-73
2023/10/16 01:58:41;;;;;;;14.63;4.40;;;;;;;17.19;100.00;100517.38;5133274;27;20030;-74
2023/10/16 02:01:10;;;;;;;19.98;4.70;;;;;;;17.32;100.00;100515.94;5132970;27;20023;-74
2023/10/16 02:03:35;;;;;;;15.88;3.88;;;;;;;17.28;100.00;100495.56;5133105;27;20039;-74
2023/10/16 02:06:01;;;;;;;12.48;3.60;;;;;;;17.07;100.00;100461.41;5132634;27;20073;-74
2023/10/16 02:08:26;;;;;;;15.00;3.20;;;;;;;17.22;100.00;100457.31;5114712;27;20096;-74
2023/10/16 02:10:52;;;;;;;11.15;3.00;;;;;;;16.78;100.00;100377.19;5133117;27;20035;-73
2023/10/16 02:13:18;;;;;;;10.05;2.63;;;;;;;16.79;100.00;100360.91;5132825;27;20386;-74
2023/10/16 02:15:44;;;;;;;9.38;2.70;;;;;;;17.05;100.00;100414.44;5133304;27;20069;-74
2023/10/16 02:18:18;;;;;;;9.73;2.58;;;;;;;16.74;100.00;100360.25;5132563;27;20070;-75
2023/10/16 02:20:45;;;;;;;11.68;2.83;;;;;;;16.83;100.00;100370.13;5132698;27;20035;-74
2023/10/16 02:23:11;;;;;;;12.55;2.55;;;;;;;16.58;100.00;100346.47;5133242;27;20042;-74
2023/10/16 02:25:37;;;;;;;9.18;2.60;;;;;;;16.80;100.00;100421.59;5114904;27;20023;-75
2023/10/16 02:28:07;;;;;;;10.23;2.60;;;;;;;16.65;100.00;100399.22;5114534;27;20187;-74
2023/10/16 02:30:36;;;;;;;25.50;3.22;;;;;;;16.43;100.00;100378.81;5132240;27;20028;-73
2023/10/16 02:35:57;;;;;;;6.22;2.47;;;;;;;16.42;100.00;100337.78;5122881;27;20038;-74
2023/10/16 02:38:27;;;;;;;8.23;2.45;;;;;;;16.63;100.00;100348.84;5132856;27;20023;-72
2023/10/16 02:40:53;;;;;;;10.90;2.50;;;;;;;16.35;100.00;100313.31;5114432;27;20469;-74
2023/10/16 02:43:23;;;;;;;8.07;2.15;;;;;;;16.84;100.00;100394.88;5114071;27;20027;-74
2023/10/16 02:45:52;;;;;;;12.73;2.25;;;;;;;16.72;100.00;100372.34;5130314;27;20134;-74
2023/10/16 02:48:19;;;;;;;28.27;3.63;;;;;;;16.81;100.00;100371.94;5132615;27;20023;-73
2023/10/16 02:50:49;;;;;;;14.88;2.60;;;;;;;16.50;100.00;100324.66;5132543;27;20100;-73
2023/10/16 02:53:24;;;;;;;14.20;3.00;;;;;;;16.72;100.00;100387.75;5132504;27;20035;-74
2023/10/16 02:55:53;;;;;;;15.35;3.10;;;;;;;16.63;100.00;100395.03;5132124;27;20108;-73
2023/10/16 02:58:22;;;;;;;12.95;3.30;;;;;;;16.52;100.00;100413.50;5131970;27;20043;-74
2023/10/16 03:00:53;;;;;;;11.18;2.97;;;;;;;16.58;100.00;100415.78;5114558;27;20216;-75
2023/10/16 03:03:19;;;;;;;12.15;3.20;;;;;;;16.11;100.00;100353.75;5132900;28;20507;-74
2023/10/16 03:05:45;;;;;;;10.60;3.03;;;;;;;16.35;100.00;100413.41;5132338;28;20098;-74
2023/10/16 03:08:12;;;;;;;8.52;2.65;;;;;;;15.93;100.00;100348.59;5132068;28;20046;-74
2023/10/16 03:10:40;;;;;;;12.13;2.80;;;;;;;16.13;100.00;100421.22;5113536;28;20029;-74
2023/10/16 03:13:06;;;;;;;9.35;3.10;;;;;;;15.58;100.00;100327.06;5130986;28;20035;-73
2023/10/16 03:15:41;;;;;;;14.38;3.25;;;;;;;16.09;100.00;100424.81;5132545;28;20039;-75
2023/10/16 03:18:16;;;;;;;7.68;2.83;;;;;;;15.53;100.00;100322.13;5114603;28;20023;-75
2023/10/16 03:20:44;;;;;;;16.20;3.20;;;;;;;16.00;100.00;100409.00;5132453;28;20088;-73
2023/10/16 03:23:12;;;;;;;20.88;3.67;;;;;;;16.10;100.00;100438.47;5131716;28;20084;-74
2023/10/16 03:28:07;;;;;;;6.55;2.38;;;;;;;15.24;100.00;100312.25;5132091;28;20062;-74
2023/10/16 03:30:33;;;;;;;11.18;2.30;;;;;;;15.56;100.00;100367.28;5128937;28;20032;-74
2023/10/16 03:32:59;;;;;;;7.55;2.22;;;;;;;15.46;100.00;100353.19;5131903;28;20035;-75
2023/10/16 03:35:31;;;;;;;13.38;2.40;;;;;;;15.59;100.00;100375.69;5112494;28;20484;-75
2023/10/16 03:37:58;;;;;;;16.75;2.38;;;;;;;15.79;100.00;100395.34;5112108;28;20470;-74
2023/10/16 03:40:27;;;;;;;9.70;2.45;;;;;;;15.60;100.00;100387.63;5111880;28;20032;-73
2023/10/16 03:42:53;;;;;;;8.57;1.80;;;;;;;15.71;100.00;100435.84;5094160;27;23574;-75
2023/10/16 03:45:21;;;;;;;13.07;2.47;;;;;;;15.30;100.00;100368.34;5129889;27;20029;-75
2023/10/16 03:48:00;;;;;;;15.77;2.97;;;;;;;15.51;100.00;100392.25;5118318;27;20062;-77
2023/10/16 03:50:26;;;;;;;22.05;3.08;;;;;;;15.70;100.00;100453.88;5135501;27;20031;-75
2023/10/16 03:52:54;;;;;;;25.08;3.08;;;;;;;15.48;100.00;100383.00;5117730;27;20031;-76
2023/10/16 03:55:24;;;;;;;24.60;3.15;;;;;;;15.20;100.00;100394.38;5136054;27;20034;-75
2023/10/16 03:58:00;;;;;;;14.48;2.63;;;;;;;15.17;100.00;100392.78;5136940;27;20027;-77
2023/10/16 04:00:41;;;;;;;9.40;2.35;;;;;;;15.60;100.00;100438.88;5114348;27;20031;-75
2023/10/16 04:03:08;;;;;;;13.45;2.65;;;;;;;15.39;100.00;100455.06;5117220;27;20031;-74
2023/10/16 04:05:45;;;;;;;7.75;2.40;;;;;;;15.18;100.00;100416.66;5135460;27;20569;-74
2023/10/16 04:08:13;;;;;;;6.45;2.35;;;;;;;15.28;100.00;100439.31;5117232;27;20175;-75
2023/10/16 04:10:40;;;;;;;5.40;2.10;;;;;;;14.65;100.00;100337.69;5131653;27;20038;-74
2023/10/16 04:13:05;;;;;;;12.18;2.10;;;;;;;15.06;100.00;100400.06;5108335;27;20050;-77
2023/10/16 04:18:05;;;;;;;10.27;2.38;;;;;;;14.99;100.00;100388.41;5123344;27;20126;-72
2023/10/16 04:29:20;;;;;;;12.73;2.75;;;;;;;14.92;100.00;100374.16;5009069;28;20040;-75
2023/10/16 04:31:44;;;;;;;8.55;1.98;;;;;;;14.86;100.00;100374.41;5009687;28;20037;-75
2023/10/16 04:34:19;;;;;;;8.63;1.73;;;;;;;15.13;100.00;100445.00;5008267;28;20048;-74
2023/10/16 04:45:24;;;;;;;10.73;2.10;;;;;;;15.07;100.00;100458.09;5007750;28;20100;-73
2023/10/16 04:48:06;;;;;;;11.07;2.50;;;;;;;15.15;100.00;100484.22;5008377;28;20041;-74
2023/10/16 05:00:56;;;;;;;10.82;1.98;;;;;;;15.02;100.00;100459.97;5011117;28;20125;-74
2023/10/16 05:22:03;;;;;;;11.10;2.00;;;;;;;14.66;100.00;100394.81;5007971;28;20190;-73
2023/10/16 06:14:12;;;;;;;7.43;2.15;;;;;;;15.14;100.00;100582.44;4990203;28;20475;-75
2023/10/16 06:16:42;;;;;;;10.48;2.00;;;;;;;15.10;100.00;100568.09;4987549;28;20496;-75
2023/10/16 06:19:15;;;;;;;10.07;2.38;;;;;;;14.61;100.00;100522.13;4973123;28;20082;-75
2023/10/16 06:21:46;;;;;;;9.70;2.08;;;;;;;14.98;100.00;100563.41;4988089;28;20034;-75
2023/10/16 06:24:25;;;;;;;14.50;2.60;;;;;;;14.58;100.00;100545.22;4988097;28;20586;-76
2023/10/16 06:26:59;;;;;;;12.48;3.03;;;;;;;15.03;100.00;100584.56;4986894;28;20117;-75
2023/10/16 06:29:34;;;;;;;16.58;2.47;;;;;;;14.55;100.00;100542.81;4985420;28;20038;-74
2023/10/16 06:32:18;;;;;;;13.93;2.10;;;;;;;14.93;100.00;100611.41;4987169;28;20034;-74
2023/10/16 06:35:07;;;;;;;8.90;2.55;;;;;;;14.98;100.00;100616.34;4988444;28;20030;-75
2023/10/16 06:37:33;;;;;;;30.13;3.33;;;;;;;14.19;100.00;100515.88;4986957;28;20033;-75
2023/10/16 06:40:01;;;;;;;17.65;2.83;;;;;;;15.04;100.00;100624.66;4986653;28;20038;-74
2023/10/16 06:42:28;;;;;;;12.05;2.30;;;;;;;14.95;100.00;100630.13;4986433;28;20584;-75
2023/10/16 06:44:54;;;;;;;7.88;2.20;;;;;;;14.19;100.00;100528.69;4987303;28;20030;-75
2023/10/16 06:47:34;;;;;;;16.13;2.55;;;;;;;14.64;100.00;100588.53;4985331;28;20034;-75
2023/10/16 06:50:53;;;;;;;7.53;2.28;;;;;;;14.92;100.00;100649.84;4986966;28;20460;-75
2023/10/16 06:52:55;;;;;;;9.77;2.60;;;;;;;14.95;100.00;100599.38;4981477;28;20197;-75
2023/10/16 06:55:22;;;;;;;9.30;2.38;;;;;;;15.09;100.00;100663.75;4987428;28;20085;-74
2023/10/16 06:57:47;;;;;;;19.25;2.80;;;;;;;15.21;100.00;100680.41;4985785;28;20034;-74
2023/10/16 07:00:27;;;;;;;16.75;2.60;;;;;;;14.84;100.00;100649.28;4986947;28;20500;-76
2023/10/16 07:02:54;;;;;;;21.17;2.70;;;;;;;14.74;100.00;100592.44;4986153;28;20045;-75
2023/10/16 07:05:42;;;;;;;17.10;2.33;;;;;;;14.98;100.00;100663.28;4987181;28;20026;-74
2023/10/16 07:08:16;;;;;;;7.03;2.28;;;;;;;15.25;100.00;100685.34;4987187;28;20117;-74
2023/10/16 07:10:42;;;;;;;13.13;2.67;;;;;;;15.27;100.00;100668.19;4986129;28;20137;-74
2023/10/16 07:13:09;;;;;;;11.07;2.63;;;;;;;15.39;100.00;100679.75;4986163;28;20061;-75
2023/10/16 07:15:34;;;;;;;11.25;2.53;;;;;;;15.07;100.00;100622.00;4987445;28;20508;-75
2023/10/16 07:18:04;;;;;;;9.65;2.67;;;;;;;15.52;100.00;100689.53;4988658;28;20038;-74
2023/10/16 07:20:37;;;;;;;15.88;3.05;;;;;;;14.89;100.00;100573.16;4974331;28;20412;-76
2023/10/16 07:23:10;;;;;;;16.38;3.95;;;;;;;15.12;100.00;100645.69;4990482;28;20045;-74
2023/10/16 07:25:50;;;;;;;10.13;2.90;;;;;;;15.50;100.00;100669.97;5011300;28;20029;-75
2023/10/16 07:28:18;;;;;;;15.55;2.80;;;;;;;15.61;100.00;100683.22;5009524;28;20030;-74
2023/10/16 07:30:43;;;;;;;14.55;3.20;;;;;;;15.26;100.00;100638.34;5009652;28;20032;-75
2023/10/16 07:33:15;;;;;;;13.18;2.90;;;;;;;14.97;100.00;100640.28;5008199;28;20030;-73
2023/10/16 07:35:44;;;;;;;12.27;2.97;;;;;;;15.47;100.00;100695.69;5010020;28;20041;-76
2023/10/16 07:38:11;;;;;;;17.13;4.47;;;;;;;14.99;100.00;100636.78;5010333;28;21740;-76
2023/10/16 07:40:37;;;;;;;12.48;3.20;;;;;;;15.13;100.00;100649.09;5009587;28;20037;-76
2023/10/16 07:43:03;;;;;;;11.52;2.42;;;;;;;15.07;100.00;100662.13;5009534;28;20026;-76
2023/10/16 07:45:35;;;;;;;6.45;2.63;;;;;;;15.03;100.00;100640.91;5009645;28;20030;-75
2023/10/16 07:48:20;;;;;;;9.05;2.40;;;;;;;15.41;100.00;100696.72;5009647;28;20121;-76
2023/10/16 07:50:47;;;;;;;11.32;2.60;;;;;;;15.37;100.00;100728.47;5011104;28;20089;-76
2023/10/16 07:53:17;;;;;;;7.75;2.30;;;;;;;14.99;100.00;100670.09;5008347;28;20417;-76
2023/10/16 07:55:50;;;;;;;6.65;2.33;;;;;;;15.05;100.00;100699.75;5010973;28;20470;-77
2023/10/16 07:58:17;;;;;;;7.03;2.30;;;;;;;15.43;100.00;100746.22;5010481;28;20027;-76
2023/10/16 08:00:57;;;;;;;6.50;2.20;;;;;;;15.06;100.00;100697.13;5008722;28;20523;-76
2023/10/16 08:03:23;;;;;;;4.72;1.90;;;;;;;15.26;100.00;100712.66;5009966;28;20033;-75
2023/10/16 08:05:48;;;;;;;6.82;2.20;;;;;;;15.68;100.00;100776.97;5009323;28;20029;-76
2023/10/16 08:08:15;;;;;;;6.65;2.17;;;;;;;15.70;100.00;100746.13;5009519;28;20034;-77
2023/10/16 08:10:43;;;;;;;7.68;2.17;;;;;;;15.41;100.00;100734.34;5009817;28;20049;-77
2023/10/16 08:13:12;;;;;;;5.35;1.88;;;;;;;16.23;100.00;100797.09;5011125;28;20025;-77
2023/10/16 08:15:44;;;;;;;6.75;1.83;;;;;;;16.18;100.00;100806.69;5009359;28;20038;-79
2023/10/16 08:18:11;;;;;;;3.88;1.60;;;;;;;15.86;100.00;100795.97;5009548;28;20385;-77
2023/10/16 08:20:49;;;;;;;5.78;2.20;;;;;;;15.82;100.00;100828.59;5008979;28;20476;-75
2023/10/16 08:23:15;;;;;;;6.00;2.30;;;;;;;15.76;100.00;100817.69;5009705;28;20050;-75
2023/10/16 08:25:41;;;;;;;5.43;2.10;;;;;;;15.51;100.00;100767.28;5011181;28;20052;-75
2023/10/16 08:28:24;;;;;;;9.27;2.03;;;;;;;16.03;100.00;100816.69;5012233;28;20484;-75
2023/10/16 08:30:51;;;;;;;5.22;1.83;;;;;;;15.89;100.00;100822.34;5009825;28;20029;-75
2023/10/16 08:33:16;;;;;;;5.25;1.83;;;;;;;15.58;100.00;100761.06;5032314;28;20033;-74
2023/10/16 08:35:43;;;;;;;4.95;2.08;;;;;;;15.47;100.00;100762.31;5013659;28;20140;-76
2023/10/16 08:38:32;;;;;;;6.45;2.05;;;;;;;15.32;100.00;100773.94;5014699;28;20037;-75
2023/10/16 08:40:59;;;;;;;9.95;2.28;;;;;;;15.87;100.00;100836.09;5031117;28;20033;-75
2023/10/16 08:43:52;;;;;;;6.32;1.83;;;;;;;15.74;100.00;100850.25;5014135;28;20099;-77
2023/10/16 08:46:18;;;;;;;8.65;1.75;;;;;;;15.39;100.00;100806.13;5031694;28;20033;-76
2023/10/16 08:48:48;;;;;;;11.07;2.25;;;;;;;15.81;100.00;100844.00;5031941;28;20040;-77
2023/10/16 08:51:16;;;;;;;20.30;2.58;;;;;;;15.52;100.00;100832.22;5032728;28;20076;-75
2023/10/16 08:53:45;;;;;;;15.57;2.42;;;;;;;15.08;100.00;100730.38;5012882;28;20415;-75
2023/10/16 08:56:16;;;;;;;10.68;2.38;;;;;;;15.87;100.00;100843.78;5014014;28;20029;-76
2023/10/16 08:58:46;;;;;;;8.93;2.40;;;;;;;15.41;100.00;100790.72;5014077;28;20486;-75
2023/10/16 09:01:16;;;;;;;9.95;2.45;;;;;;;16.23;100.00;100852.72;5031719;28;20076;-75
2023/10/16 09:03:46;;;;;;;15.38;2.10;;;;;;;15.24;100.00;100772.50;5014298;28;20483;-75
2023/10/16 09:06:21;;;;;;;15.20;2.22;;;;;;;16.05;100.00;100866.22;5014027;28;20479;-75
2023/10/16 09:08:48;;;;;;;7.90;2.35;;;;;;;15.86;100.00;100829.31;5013458;28;20484;-74
2023/10/16 09:11:16;;;;;;;11.52;2.38;;;;;;;15.84;100.00;100828.53;5031437;28;20032;-74
2023/10/16 09:13:45;;;;;;;9.18;2.00;;;;;;;16.07;100.00;100880.66;5012629;28;20163;-75
2023/10/16 09:16:15;;;;;;;9.02;2.10;;;;;;;16.19;100.00;100807.53;5031777;28;20029;-75
2023/10/16 09:18:41;;;;;;;10.93;1.85;;;;;;;16.12;100.00;100816.38;5013683;28;20026;-75
2023/10/16 09:21:28;;;;;;;7.78;1.90;;;;;;;16.42;100.00;100869.94;5031493;28;20483;-76
2023/10/16 09:23:58;;;;;;;6.10;2.15;;;;;;;16.33;100.00;100825.81;5030715;28;20045;-75
2023/10/16 09:26:28;;;;;;;5.10;1.77;;;;;;;17.22;100.00;100859.09;5031502;28;20036;-75
2023/10/16 09:28:55;;;;;;;8.60;1.80;;;;;;;17.06;100.00;100881.16;5010613;28;20026;-75
2023/10/16 09:31:21;;;;;;;5.72;1.98;;;;;;;16.67;100.00;100815.97;5027414;28;20060;-77
2023/10/16 09:33:49;;;;;;;6.68;1.38;;;;;;;17.06;100.00;100839.22;5028746;28;20100;-75
2023/10/16 09:36:23;;;;;;;19.38;2.08;;;;;;;17.09;100.00;100811.66;5011053;28;20769;-75
2023/10/16 09:38:51;;;;;;;11.60;2.22;;;;;;;17.43;100.00;100848.81;5010565;28;20034;-76
2023/10/16 09:43:56;;;;;;;16.70;2.47;;;;;;;17.12;100.00;100847.50;5028024;28;20033;-75
2023/10/16 09:49:15;;;;;;;19.73;2.50;;;;;;;17.34;100.00;100850.88;5027079;28;20032;-76
2023/10/16 09:51:44;;;;;;;10.82;2.50;;;;;;;16.80;100.00;100812.00;5030369;28;20060;-74
2023/10/16 09:54:11;;;;;;;16.48;2.53;;;;;;;17.39;100.00;100796.66;5030042;28;20230;-75
2023/10/16 09:56:39;;;;;;;17.02;2.67;;;;;;;17.47;100.00;100786.09;5030625;28;20120;-74
2023/10/16 09:59:23;;;;;;;7.82;2.08;;;;;;;18.40;100.00;100833.31;5030139;28;20049;-74
2023/10/16 10:01:51;;;;;;;15.55;2.17;;;;;;;18.87;100.00;100818.22;5029747;28;20104;-74
2023/10/16 10:04:19;;;;;;;12.30;2.17;;;;;;;18.51;100.00;100827.69;5012913;28;20570;-74
2023/10/16 10:06:51;;;;;;;6.60;2.10;;;;;;;18.62;100.00;100828.84;5012468;28;20107;-75
2023/10/16 10:12:07;;;;;;;5.85;1.73;;;;;;;19.17;100.00;100788.38;5030144;28;20499;-78
2023/10/16 10:14:48;;;;;;;19.88;2.53;;;;;;;18.97;100.00;100797.09;5030409;28;20030;-75
2023/10/16 10:17:20;;;;;;;15.68;2.38;;;;;;;19.83;100.00;100753.06;5029719;28;20025;-75
2023/10/16 10:19:54;;;;;;;16.50;3.00;;;;;;;18.90;100.00;100798.28;5030109;28;20033;-76
2023/10/16 10:22:27;;;;;;;9.98;2.15;;;;;;;19.59;100.00;100724.25;5012148;28;20087;-74
2023/10/16 10:25:58;;;;;;;18.20;2.50;;;;;;;20.25;100.00;100770.59;5029952;28;20159;-75
2023/10/16 10:28:09;;;;;;;8.05;1.70;;;;;;;20.32;100.00;100767.59;5013627;28;20041;-76
2023/10/16 10:30:45;;;;;;;3.78;1.40;;;;;;;19.71;100.00;100723.59;5029200;28;20049;-76
2023/10/16 10:33:51;;;;;;;8.40;1.35;;;;;;;19.69;100.00;100791.69;5029551;28;20539;-76
2023/10/16 10:36:39;;;;;;;9.52;1.80;;;;;;;19.17;100.00;100705.00;5012368;28;20041;-76
2023/10/16 10:39:38;;;;;;;5.65;1.42;;;;;;;20.05;100.00;100794.06;5012743;28;20014;-75
2023/10/16 10:42:04;;;;;;;5.40;1.55;;;;;;;20.16;100.00;100774.50;5028834;28;20026;-76
2023/10/16 10:44:31;;;;;;;6.00;2.05;;;;;;;19.62;100.00;100749.91;5012534;28;20059;-76
2023/10/16 10:47:00;;;;;;;4.55;1.60;;;;;;;19.72;100.00;100822.50;5030024;28;20342;-76
2023/10/16 10:49:33;;;;;;;8.30;1.63;;;;;;;20.41;100.00;100746.44;5012139;28;20029;-75
2023/10/16 10:52:06;;;;;;;4.55;1.67;;;;;;;19.37;100.00;100735.78;5011802;28;20048;-76
2023/10/16 10:54:33;;;;;;;6.82;1.42;;;;;;;19.67;100.00;100724.69;5028347;28;20029;-74
2023/10/16 10:57:04;;;;;;;6.40;1.70;;;;;;;20.08;100.00;100804.25;5012139;28;20120;-75
2023/10/16 10:59:39;;;;;;;4.00;1.73;;;;;;;19.64;100.00;100817.75;5011483;28;20047;-76
2023/10/16 11:04:45;;;;;;;6.53;1.60;;;;;;;20.16;100.00;100766.78;5029840;28;20040;-75
2023/10/16 11:07:23;;;;;;;14.18;1.60;;;;;;;20.01;100.00;100759.00;5029041;28;20026;-75
2023/10/16 11:09:51;;;;;;;7.93;1.60;;;;;;;20.90;100.00;100810.88;5015690;28;20091;-75
2023/10/16 11:12:16;;;;;;;6.43;1.50;;;;;;;19.72;100.00;100776.06;5032050;28;20035;-75
2023/10/16 11:14:42;;;;;;;5.47;1.52;;;;;;;20.10;100.00;100749.03;5010927;28;20025;-74
2023/10/16 11:17:07;;;;;;;3.05;1.10;;;;;;;20.47;100.00;100833.94;5028632;28;20412;-74
2023/10/16 11:19:50;;;;;;;2.22;1.40;;;;;;;20.03;100.00;100850.97;5009680;28;20037;-77
2023/10/16 11:22:20;;;;;;;4.20;1.45;;;;;;;20.64;100.00;100826.06;5010789;28;20050;-75
2023/10/16 11:24:47;;;;;;;4.05;1.30;;;;;;;20.12;100.00;100779.91;5029004;28;20037;-75
2023/10/16 11:27:13;;;;;;;4.93;1.40;;;;;;;20.45;100.00;100793.59;5028004;28;20037;-75
2023/10/16 11:29:40;;;;;;;2.47;1.50;;;;;;;20.94;100.00;100791.66;5012084;28;20124;-75
2023/10/16 11:32:06;;;;;;;4.07;1.42;;;;;;;20.90;100.00;100774.66;5027216;28;20044;-76
2023/10/16 11:34:45;;;;;;;4.32;1.35;;;;;;;20.74;100.00;100796.22;5028963;28;20034;-76
2023/10/16 11:37:14;;;;;;;3.55;1.75;;;;;;;21.45;100.00;100809.34;5010697;28;20057;-75
2023/10/16 11:39:40;;;;;;;4.88;1.38;;;;;;;20.44;100.00;100764.34;5011505;28;20562;-76
2023/10/16 11:42:13;;;;;;;6.00;1.60;;;;;;;20.45;100.00;100762.59;5010911;28;20124;-75
2023/10/16 11:44:40;;;;;;;3.67;1.38;;;;;;;20.69;100.00;100774.13;5028422;28;20034;-75
2023/10/16 11:47:16;;;;;;;6.80;1.70;;;;;;;21.42;100.00;100776.72;5027549;28;20419;-76
2023/10/16 11:49:53;;;;;;;3.80;1.27;;;;;;;20.92;100.00;100809.03;5011214;28;20129;-74
2023/10/16 11:52:19;;;;;;;7.47;1.70;;;;;;;21.19;100.00;100797.94;5028566;28;20030;-75
2023/10/16 11:54:53;;;;;;;6.55;1.85;;;;;;;20.72;100.00;100835.97;5009651;28;20128;-75
2023/10/16 11:57:19;;;;;;;8.52;1.70;;;;;;;21.42;100.00;100812.09;5028605;28;20030;-77
2023/10/16 11:59:44;;;;;;;7.32;1.50;;;;;;;20.71;100.00;100754.19;5028777;28;20021;-76
2023/10/16 12:02:12;;;;;;;3.97;1.50;;;;;;;20.74;100.00;100822.06;5028669;28;20033;-78
2023/10/16 12:04:42;;;;;;;6.50;1.50;;;;;;;21.57;100.00;100814.59;5012262;28;20033;-75
2023/10/16 12:07:09;;;;;;;4.78;1.52;;;;;;;20.27;100.00;100821.28;5032182;28;20026;-75
2023/10/16 12:09:52;;;;;;;11.75;1.63;;;;;;;19.90;100.00;100806.06;5031517;28;20079;-75
2023/10/16 12:12:20;;;;;;;5.13;1.58;;;;;;;20.63;100.00;100839.09;5014932;28;20029;-76
2023/10/16 12:14:50;;;;;;;6.43;1.42;;;;;;;20.58;100.00;100848.88;5014595;28;20025;-77
2023/10/16 12:17:24;;;;;;;4.18;1.60;;;;;;;19.98;100.00;100810.81;5031031;28;20097;-75
2023/10/16 12:19:51;;;;;;;2.97;1.23;;;;;;;20.69;100.00;100831.00;5030832;28;20037;-74
2023/10/16 12:22:20;;;;;;;4.65;2.30;;;;;;;20.43;100.00;100837.59;5013748;28;20057;-78
2023/10/16 12:24:46;;;;;;;4.45;1.45;;;;;;;20.98;100.00;100826.75;5013768;28;20025;-78
2023/10/16 12:27:15;;;;;;;6.85;1.63;;;;;;;21.67;100.00;100830.41;5031297;28;20507;-75
2023/10/16 12:29:41;;;;;;;7.32;1.70;;;;;;;21.52;100.00;100816.66;5014564;28;20116;-75
2023/10/16 12:32:07;;;;;;;5.80;1.55;;;;;;;19.91;100.00;100789.66;5014747;28;20033;-76
2023/10/16 12:34:33;;;;;;;4.40;1.40;;;;;;;20.11;100.00;100859.13;5031458;28;20041;-76
2023/10/16 12:37:00;;;;;;;4.10;1.23;;;;;;;20.67;100.00;100858.69;5014038;28;20029;-76
2023/10/16 12:39:30;;;;;;;4.25;1.35;;;;;;;20.40;100.00;100884.25;5031857;28;20156;-75
2023/10/16 12:41:55;;;;;;;4.72;1.35;;;;;;;20.98;100.00;100873.31;5031414;28;20121;-76
2023/10/16 12:44:24;;;;;;;5.25;1.33;;;;;;;20.36;100.00;100810.44;5014192;28;20116;-78
2023/10/16 12:46:52;;;;;;;4.03;1.20;;;;;;;20.48;100.00;100829.63;5012786;28;20068;-75
2023/10/16 12:49:17;;;;;;;3.65;1.52;;;;;;;21.12;100.00;100857.88;5031513;28;20059;-74
2023/10/16 12:51:43;;;;;;;3.33;1.30;;;;;;;21.26;100.00;100852.72;5031876;28;20116;-76
2023/10/16 12:54:12;;;;;;;5.07;1.42;;;;;;;20.54;100.00;100826.69;5013891;28;20436;-75
2023/10/16 12:56:41;;;;;;;5.07;1.25;;;;;;;20.87;100.00;100886.00;5031048;28;20176;-75
2023/10/16 12:59:08;;;;;;;6.70;1.40;;;;;;;20.19;100.00;100827.75;5031033;28;20026;-75
2023/10/16 13:01:36;;;;;;;3.60;1.27;;;;;;;20.58;100.00;100817.84;5029490;28;20119;-75
2023/10/16 13:04:25;;;;;;;6.30;1.50;;;;;;;21.49;100.00;100866.00;5013902;28;20033;-75
2023/10/16 13:06:48;;;;;;;3.85;1.60;;;;;;;20.35;100.00;100886.28;5030583;28;20592;-74
2023/10/16 13:09:16;;;;;;;5.63;1.48;;;;;;;20.74;100.00;100842.75;5029955;28;20034;-75
2023/10/16 13:11:42;;;;;;;4.03;1.30;;;;;;;20.99;100.00;100893.09;5013767;28;20033;-76
2023/10/16 13:14:07;;;;;;;3.15;1.20;;;;;;;20.72;100.00;100911.78;5012843;28;20041;-76
2023/10/16 13:16:33;;;;;;;5.78;1.17;;;;;;;20.59;100.00;100872.03;5013261;28;20070;-76
2023/10/16 13:18:59;;;;;;;4.72;1.38;;;;;;;19.98;100.00;100860.72;5031091;28;20059;-76
2023/10/16 13:21:34;;;;;;;5.28;1.38;;;;;;;19.77;100.00;100864.38;5013038;28;20044;-76